createdAt,value
2022-10-12T00:01:35.417Z,1019.374
2022-10-12T00:06:38.079Z,1019.346
2022-10-12T00:11:40.770Z,1019.419
2022-10-12T00:16:43.466Z,1019.435
2022-10-12T00:21:46.138Z,1019.436
2022-10-12T00:26:48.830Z,1019.455
2022-10-12T00:31:51.665Z,1019.447
2022-10-12T00:36:54.081Z,1019.394
2022-10-12T00:41:56.781Z,1019.437
2022-10-12T00:46:59.473Z,1019.394
2022-10-12T00:52:02.233Z,1019.442
2022-10-12T00:57:04.943Z,1019.503
2022-10-12T01:02:07.572Z,1019.51
2022-10-12T01:07:10.260Z,1019.518
2022-10-12T01:12:12.977Z,1019.497
2022-10-12T01:17:15.558Z,1019.523
2022-10-12T01:22:18.233Z,1019.537
2022-10-12T01:27:21.473Z,1019.494
2022-10-12T01:32:24.490Z,1019.528
2022-10-12T01:37:26.980Z,1019.577
2022-10-12T01:42:29.660Z,1019.602
2022-10-12T01:47:32.365Z,1019.618
2022-10-12T01:52:34.960Z,1019.632
2022-10-12T01:57:37.832Z,1019.625
2022-10-12T02:02:40.170Z,1019.55
2022-10-12T02:07:42.924Z,1019.561
2022-10-12T02:12:45.654Z,1019.526
2022-10-12T02:17:48.346Z,1019.421
2022-10-12T02:22:50.920Z,1019.408
2022-10-12T02:27:53.771Z,1019.435
2022-10-12T02:32:56.491Z,1019.372
2022-10-12T02:37:59.233Z,1019.392
2022-10-12T02:43:10.702Z,1019.316
2022-10-12T02:48:04.439Z,1019.254
2022-10-12T02:53:15.144Z,1019.174
2022-10-12T02:58:18.014Z,1019.165
2022-10-12T03:03:20.738Z,1019.198
2022-10-12T03:08:23.405Z,1019.197
2022-10-12T03:13:26.018Z,1019.167
2022-10-12T03:18:28.582Z,1019.14
2022-10-12T03:23:31.222Z,1019.173
2022-10-12T03:28:33.731Z,1019.171
2022-10-12T03:33:36.238Z,1019.217
2022-10-12T03:38:38.892Z,1019.157
2022-10-12T03:43:41.583Z,1019.146
2022-10-12T03:48:44.198Z,1019.128
2022-10-12T03:53:46.982Z,1019.136
2022-10-12T03:58:49.479Z,1019.144
2022-10-12T04:03:52.136Z,1019.189
2022-10-12T04:08:54.607Z,1019.161
2022-10-12T04:13:57.351Z,1019.228
2022-10-12T04:19:00.154Z,1019.314
2022-10-12T04:24:02.740Z,1019.247
2022-10-12T04:29:05.455Z,1019.286
2022-10-12T04:34:08.505Z,1019.242
2022-10-12T04:39:11.011Z,1019.236
2022-10-12T04:44:16.476Z,1019.234
2022-10-12T04:49:19.321Z,1019.323
2022-10-12T04:59:25.116Z,1019.382
2022-10-12T05:04:30.617Z,1019.39
2022-10-12T05:09:33.243Z,1019.374
2022-10-12T05:14:36.251Z,1019.37
2022-10-12T05:19:38.562Z,1019.357
2022-10-12T05:24:41.276Z,1019.437
2022-10-12T05:29:43.983Z,1019.408
2022-10-12T05:34:46.483Z,1019.5
2022-10-12T05:39:49.261Z,1019.387
2022-10-12T05:44:51.946Z,1019.414
2022-10-12T05:49:54.703Z,1019.397
2022-10-12T05:54:57.455Z,1019.419
2022-10-12T06:00:00.263Z,1019.394
2022-10-12T06:05:03.190Z,1019.415
2022-10-12T06:10:06.013Z,1019.439
2022-10-12T06:15:08.879Z,1019.431
2022-10-12T06:20:11.693Z,1019.482
2022-10-12T06:25:14.469Z,1019.548
2022-10-12T06:30:17.256Z,1019.492
2022-10-12T06:35:20.084Z,1019.608
2022-10-12T06:40:22.979Z,1019.583
2022-10-12T06:45:25.797Z,1019.548
2022-10-12T06:50:28.731Z,1019.588
2022-10-12T06:55:31.457Z,1019.525
2022-10-12T07:00:34.260Z,1019.593
2022-10-12T07:05:39.812Z,1019.569
2022-10-12T07:10:42.356Z,1019.578
2022-10-12T07:15:45.308Z,1019.616
2022-10-12T07:20:48.255Z,1019.58
2022-10-12T07:30:53.845Z,1019.61
2022-10-12T07:36:13.107Z,1019.629
2022-10-12T07:40:59.500Z,1019.667
2022-10-12T07:46:02.496Z,1019.595
2022-10-12T07:51:05.329Z,1019.606
2022-10-12T07:56:07.934Z,1019.625
2022-10-12T08:01:10.584Z,1019.629
2022-10-12T08:11:15.726Z,1019.642
2022-10-12T08:21:21.131Z,1019.647
2022-10-12T08:26:23.324Z,1019.68
2022-10-12T08:31:25.897Z,1019.616
2022-10-12T08:36:33.591Z,1019.616
2022-10-12T08:41:36.222Z,1019.585
2022-10-12T08:51:41.786Z,1019.639
2022-10-12T08:56:45.012Z,1019.609
2022-10-12T09:01:47.754Z,1019.578
2022-10-12T09:06:53.162Z,1019.606
2022-10-12T09:11:55.776Z,1019.515
2022-10-12T09:16:58.835Z,1019.546
2022-10-12T09:22:01.279Z,1019.509
2022-10-12T09:27:04.048Z,1019.478
2022-10-12T09:42:13.222Z,1019.421
2022-10-12T09:52:18.908Z,1019.341
2022-10-12T10:02:24.895Z,1019.336
2022-10-12T10:12:30.306Z,1019.342
2022-10-12T10:17:32.968Z,1019.312
2022-10-12T10:22:35.565Z,1019.23
2022-10-12T10:32:44.057Z,1019.271
2022-10-12T10:37:49.649Z,1019.184
2022-10-12T10:42:52.383Z,1019.275
2022-10-12T10:47:57.523Z,1019.246
2022-10-12T10:53:00.051Z,1019.218
2022-10-12T10:58:05.147Z,1019.128
2022-10-12T11:08:10.734Z,1019.084
2022-10-12T11:13:13.478Z,1019.016
2022-10-12T11:23:19.338Z,1018.827
2022-10-12T11:28:22.301Z,1018.714
2022-10-12T11:44:30.101Z,1018.514
2022-10-12T11:49:28.756Z,1018.491
2022-10-12T11:59:34.287Z,1018.377
2022-10-12T12:04:42.029Z,1018.325
2022-10-12T12:09:39.957Z,1018.328
2022-10-12T12:29:53.652Z,1018.163
2022-10-12T12:35:00.151Z,1018.119
2022-10-12T12:39:58.857Z,1018.196
2022-10-12T12:45:01.591Z,1018.175
2022-10-12T12:50:04.610Z,1018.153
2022-10-12T12:55:07.323Z,1018.046
2022-10-12T13:00:10.422Z,1018.028
2022-10-12T13:05:12.981Z,1018.04
2022-10-12T13:10:15.535Z,1018.041
2022-10-12T13:15:18.326Z,1017.854
2022-10-12T13:20:20.957Z,1017.882
2022-10-12T13:25:23.431Z,1017.848
2022-10-12T13:30:26.031Z,1017.854
2022-10-12T13:35:28.615Z,1017.806
2022-10-12T13:40:31.647Z,1017.715
2022-10-12T13:45:34.120Z,1017.714
2022-10-12T13:50:36.962Z,1017.721
2022-10-12T13:55:39.743Z,1017.68
2022-10-12T14:00:42.446Z,1017.618
2022-10-12T14:05:44.975Z,1017.527
2022-10-12T14:10:48.397Z,1017.458
2022-10-12T14:15:51.031Z,1017.444
2022-10-12T14:20:53.410Z,1017.423
2022-10-12T14:25:56.229Z,1017.31
2022-10-12T14:30:58.857Z,1017.307
2022-10-12T14:36:01.402Z,1017.24
2022-10-12T14:41:04.110Z,1017.167
2022-10-12T14:46:06.714Z,1017.185
2022-10-12T14:51:09.196Z,1017.231
2022-10-12T14:56:11.974Z,1017.173
2022-10-12T15:06:17.181Z,1017.014
2022-10-12T15:11:20.070Z,1017.032
2022-10-12T15:16:22.663Z,1017.016
2022-10-12T15:21:26.094Z,1016.988
2022-10-12T15:26:28.875Z,1016.896
2022-10-12T15:31:31.607Z,1016.877
2022-10-12T15:36:33.989Z,1016.869
2022-10-12T15:41:36.405Z,1016.809
2022-10-12T15:46:38.967Z,1016.811
2022-10-12T15:51:41.677Z,1016.772
2022-10-12T15:56:44.164Z,1016.748
2022-10-12T16:01:46.811Z,1016.742
2022-10-12T16:06:49.741Z,1016.74
2022-10-12T16:11:52.341Z,1016.749
2022-10-12T16:16:54.874Z,1016.7
2022-10-12T16:21:57.889Z,1016.708
2022-10-12T16:27:00.577Z,1016.63
2022-10-12T16:32:03.279Z,1016.682
2022-10-12T16:37:05.970Z,1016.757
2022-10-12T16:42:08.463Z,1016.706
2022-10-12T16:47:11.016Z,1016.681
2022-10-12T16:52:13.805Z,1016.626
2022-10-12T16:57:16.153Z,1016.669
2022-10-12T17:02:18.950Z,1016.676
2022-10-12T17:07:21.516Z,1016.691
2022-10-12T17:12:24.339Z,1016.674
2022-10-12T17:17:26.952Z,1016.711
2022-10-12T17:22:29.525Z,1016.622
2022-10-12T17:27:32.582Z,1016.68
2022-10-12T17:32:35.101Z,1016.62
2022-10-12T17:43:07.980Z,1016.561
2022-10-12T17:48:11.495Z,1016.567
2022-10-12T17:53:14.451Z,1016.495
2022-10-12T17:58:17.175Z,1016.488
2022-10-12T18:03:24.883Z,1016.519
2022-10-12T18:08:23.272Z,1016.501
2022-10-12T18:13:26.499Z,1016.487
2022-10-12T18:18:29.179Z,1016.413
2022-10-12T18:23:31.670Z,1016.374
2022-10-12T18:28:34.334Z,1016.326
2022-10-12T18:33:36.754Z,1016.308
2022-10-12T18:38:39.502Z,1016.247
2022-10-12T18:43:42.288Z,1016.269
2022-10-12T18:48:45.588Z,1016.304
2022-10-12T18:53:48.282Z,1016.28
2022-10-12T18:58:51.110Z,1016.232
2022-10-12T19:03:53.677Z,1016.232
2022-10-12T19:08:56.282Z,1016.194
2022-10-12T19:13:59.093Z,1016.133
2022-10-12T19:19:01.740Z,1016.108
2022-10-12T19:24:04.225Z,1016.101
2022-10-12T19:29:07.698Z,1016.097
2022-10-12T19:34:10.459Z,1016.099
2022-10-12T19:39:13.145Z,1016.024
2022-10-12T19:44:15.824Z,1016.044
2022-10-12T19:49:18.535Z,1016.058
2022-10-12T19:54:21.132Z,1016.015
2022-10-12T19:59:23.794Z,1015.949
2022-10-12T20:04:26.464Z,1015.887
2022-10-12T20:09:29.182Z,1015.847
2022-10-12T20:14:31.885Z,1015.863
2022-10-12T20:19:34.604Z,1015.899
2022-10-12T20:24:37.493Z,1015.874
2022-10-12T20:29:40.064Z,1015.837
2022-10-12T20:34:42.687Z,1015.852
2022-10-12T20:39:45.394Z,1015.793
2022-10-12T20:44:48.048Z,1015.728
2022-10-12T20:49:50.641Z,1015.702
2022-10-12T20:54:54.152Z,1015.684
2022-10-12T20:59:57.131Z,1015.562
2022-10-12T21:04:59.902Z,1015.5
2022-10-12T21:10:02.612Z,1015.406
2022-10-12T21:15:05.629Z,1015.385
2022-10-12T21:20:08.409Z,1015.385
2022-10-12T21:25:13.847Z,1015.391
2022-10-12T21:30:16.652Z,1015.364
2022-10-12T21:35:19.429Z,1015.398
2022-10-12T21:40:22.611Z,1015.447
2022-10-12T21:45:25.219Z,1015.54
2022-10-12T21:50:27.706Z,1015.48
2022-10-12T21:55:30.386Z,1015.402
2022-10-12T22:00:33.769Z,1015.398
2022-10-12T22:05:36.221Z,1015.498
2022-10-12T22:10:38.750Z,1015.467
2022-10-12T22:15:41.197Z,1015.386
2022-10-12T22:20:43.904Z,1015.319
2022-10-12T22:25:46.678Z,1015.278
2022-10-12T22:30:49.424Z,1015.284
2022-10-12T22:35:52.073Z,1015.224
2022-10-12T22:40:55.117Z,1015.25
2022-10-12T22:45:57.650Z,1015.182
2022-10-12T22:51:00.102Z,1015.142
2022-10-12T22:56:03.034Z,1015.034
2022-10-12T23:01:05.559Z,1015.093
2022-10-12T23:06:11.033Z,1015.029
2022-10-12T23:11:13.898Z,1015.015
2022-10-12T23:16:16.270Z,1014.965
2022-10-12T23:21:19.044Z,1014.926
2022-10-12T23:26:21.942Z,1014.936
2022-10-12T23:31:24.532Z,1014.996
2022-10-12T23:36:27.188Z,1014.987
2022-10-12T23:41:29.930Z,1014.951
2022-10-12T23:46:32.778Z,1014.937
2022-10-12T23:51:35.345Z,1014.88
2022-10-12T23:56:38.146Z,1014.874
